Time;durP1;ratioP1;P1;durP2;ratioP2;P2;SDS_P1;SDS_P2;PMS_P1;PMS_P2;Temp;Humidity;BMP_temperature;BMP_pressure;BME280_temperature;BME280_humidity;BME280_pressure;Samples;Min_cycle;Max_cycle;Signal;HPM_P1;HPM_P2
2021/04/23 08:45:32;;;;;;;6.78;3.00;;;22.90;41.30;;;;;;5073720;28;20456;-60
2021/04/23 08:47:58;;;;;;;5.47;2.63;;;21.80;42.20;;;;;;5073470;28;20032;-58
2021/04/23 08:50:25;;;;;;;7.72;3.03;;;21.70;42.70;;;;;;5063623;28;20071;-44
2021/04/23 08:52:51;;;;;;;7.25;3.10;;;22.60;41.30;;;;;;5047232;28;20025;-45
2021/04/23 08:55:19;;;;;;;9.38;3.40;;;22.30;40.80;;;;;;5045661;28;20021;-40
2021/04/23 08:57:45;;;;;;;6.22;2.67;;;22.10;41.60;;;;;;5054364;28;20025;-47
2021/04/23 09:00:11;;;;;;;7.60;3.13;;;22.10;41.60;;;;;;5053278;28;20021;-45
2021/04/23 09:02:38;;;;;;;5.18;2.33;;;22.00;41.60;;;;;;5053168;28;20041;-56
2021/04/23 09:05:04;;;;;;;8.90;2.55;;;22.10;42.00;;;;;;5054285;28;20022;-49
2021/04/23 09:07:30;;;;;;;5.40;2.53;;;22.00;41.60;;;;;;5051648;28;20049;-49
2021/04/23 09:10:05;;;;;;;8.32;2.22;;;22.00;41.80;;;;;;5054004;28;20025;-44
2021/04/23 09:12:31;;;;;;;8.57;2.63;;;22.00;41.90;;;;;;5053820;28;20063;-55
2021/04/23 09:14:56;;;;;;;6.22;2.38;;;22.00;41.80;;;;;;5051897;28;20021;-48
2021/04/23 09:17:26;;;;;;;5.45;2.60;;;21.80;42.50;;;;;;5051577;28;20029;-53
2021/04/23 09:19:53;;;;;;;5.97;2.90;;;21.70;42.50;;;;;;5053539;28;20410;-48
2021/04/23 09:22:19;;;;;;;6.85;2.97;;;22.80;42.00;;;;;;5052232;28;20412;-64
2021/04/23 09:24:52;;;;;;;8.23;2.47;;;22.00;42.10;;;;;;5047769;28;20033;-63
2021/04/23 09:27:23;;;;;;;5.78;2.53;;;21.70;42.80;;;;;;5051074;28;20087;-61
2021/04/23 09:29:52;;;;;;;8.15;2.83;;;21.50;43.00;;;;;;5045841;28;20079;-64
2021/04/23 09:32:21;;;;;;;6.78;3.17;;;21.50;43.10;;;;;;5053259;28;20031;-64
2021/04/23 09:37:25;;;;;;;12.95;5.88;;;21.50;43.20;;;;;;5119049;27;20765;-62
2021/04/23 09:39:52;;;;;;;11.90;5.50;;;17.50;44.40;;;;;;5123927;28;20118;-59
2021/04/23 09:42:20;;;;;;;12.40;6.18;;;16.90;46.20;;;;;;5100318;28;20024;-59
2021/04/23 09:44:48;;;;;;;14.57;5.32;;;16.90;46.50;;;;;;5114908;28;20020;-61
2021/04/23 09:47:20;;;;;;;14.15;5.85;;;17.10;46.80;;;;;;5095650;28;20035;-59
2021/04/23 09:49:57;;;;;;;13.40;5.97;;;17.10;46.70;;;;;;5094027;28;20584;-60
2021/04/23 09:52:25;;;;;;;10.00;5.05;;;17.20;46.40;;;;;;5099646;28;20102;-60
2021/04/23 09:54:54;;;;;;;13.82;5.25;;;17.30;46.40;;;;;;5101403;28;20084;-60
2021/04/23 10:10:35;;;;;;;;;;;21.10;40.60;;;;;;5111057;27;19922;-71
2021/04/23 10:13:03;;;;;;;;;;;24.60;38.80;;;;;;5101665;28;19912;-67
2021/04/23 10:15:29;;;;;;;;;;;26.70;34.50;;;;;;5099971;28;19981;-67
2021/04/23 10:17:56;;;;;;;;;;;28.10;31.80;;;;;;5093314;28;19916;-67
2021/04/23 10:20:35;;;;;;;;;;;29.80;30.20;;;;;;5092429;28;19913;-67
2021/04/23 10:23:02;;;;;;;;;;;30.80;28.50;;;;;;5084907;28;19912;-70
2021/04/23 10:31:24;;;;;;;15.60;6.80;;;22.50;40.60;;;;;;5096136;27;20440;-74
2021/04/23 10:33:51;;;;;;;11.52;6.20;;;24.00;37.30;;;;;;5086303;28;20021;-74
2021/04/23 10:36:19;;;;;;;12.55;6.45;;;25.50;35.20;;;;;;5093582;28;20111;-76
2021/04/23 10:38:45;;;;;;;10.70;6.38;;;26.70;35.50;;;;;;5089035;28;20020;-79
2021/04/23 10:41:11;;;;;;;11.50;6.13;;;27.20;33.00;;;;;;5094578;28;20032;-78
2021/04/23 10:43:50;;;;;;;16.88;6.93;;;27.80;34.10;;;;;;5092062;28;20025;-78
2021/04/23 10:46:17;;;;;;;10.45;6.40;;;28.20;33.40;;;;;;5094112;28;20025;-79
2021/04/23 10:48:45;;;;;;;14.43;6.90;;;28.00;32.40;;;;;;5088392;28;20024;-79
2021/04/23 10:51:20;;;;;;;14.50;6.07;;;28.00;31.90;;;;;;5094717;28;20032;-78
2021/04/23 10:53:48;;;;;;;12.32;7.03;;;27.70;32.00;;;;;;5093897;28;20027;-82
2021/04/23 10:56:17;;;;;;;13.10;7.97;;;27.80;32.20;;;;;;5092745;28;20024;-81
2021/04/23 10:58:42;;;;;;;11.80;7.50;;;27.10;31.70;;;;;;5094438;28;20024;-83
2021/04/23 11:01:14;;;;;;;14.13;7.18;;;27.10;31.10;;;;;;5091231;28;20111;-82
2021/04/23 11:03:42;;;;;;;13.95;7.22;;;27.50;31.30;;;;;;5091931;28;20029;-79
2021/04/23 11:06:28;;;;;;;11.90;6.88;;;27.80;31.30;;;;;;5094196;28;20054;-78
2021/04/23 11:09:05;;;;;;;11.57;6.97;;;28.30;30.70;;;;;;5094179;28;20107;-79
2021/04/23 11:11:36;;;;;;;12.95;7.10;;;29.10;30.60;;;;;;5091942;28;20570;-79
2021/04/23 11:14:25;;;;;;;13.30;6.60;;;29.30;30.60;;;;;;5077798;28;20396;-75
2021/04/23 11:16:54;;;;;;;12.93;6.80;;;29.80;30.30;;;;;;5085067;28;20041;-80
2021/04/23 11:19:20;;;;;;;12.40;6.50;;;30.00;29.60;;;;;;5091018;28;20107;-80
2021/04/23 11:21:51;;;;;;;13.52;6.78;;;29.70;30.60;;;;;;5092730;28;20061;-76
2021/04/23 11:24:22;;;;;;;18.67;10.90;;;29.50;30.80;;;;;;5093987;28;20047;-70
2021/04/23 11:26:57;;;;;;;12.40;6.85;;;29.90;29.90;;;;;;5091410;28;20173;-71
2021/04/23 11:29:24;;;;;;;13.60;7.05;;;30.40;30.40;;;;;;5092153;28;20123;-73
2021/04/23 11:32:19;;;;;;;12.20;7.55;;;30.10;29.80;;;;;;5092680;28;20122;-73
2021/04/23 11:34:52;;;;;;;11.32;7.25;;;30.60;29.30;;;;;;5080635;28;20490;-73
2021/04/23 11:37:41;;;;;;;10.07;7.13;;;30.20;30.00;;;;;;5093096;28;20025;-73
2021/04/23 11:40:17;;;;;;;15.95;7.28;;;30.70;31.20;;;;;;5092522;28;20032;-72
2021/04/23 11:42:49;;;;;;;10.82;7.15;;;30.70;29.70;;;;;;5092533;28;20024;-73
2021/04/23 11:45:27;;;;;;;16.70;6.95;;;30.40;29.50;;;;;;5066977;28;20032;-72
2021/04/23 11:48:07;;;;;;;11.43;6.45;;;30.20;30.90;;;;;;5072256;28;20017;-72
2021/04/23 11:50:39;;;;;;;12.50;7.53;;;30.00;29.70;;;;;;5067549;28;20236;-71
2021/04/23 11:53:08;;;;;;;14.57;10.30;;;30.10;29.60;;;;;;5076772;28;20065;-71
2021/04/23 11:55:39;;;;;;;25.02;13.95;;;30.40;31.00;;;;;;5078228;28;20510;-71
2021/04/23 11:58:07;;;;;;;9.35;5.90;;;29.90;30.90;;;;;;5078669;28;20032;-72
2021/04/23 12:00:34;;;;;;;10.15;5.85;;;30.30;30.30;;;;;;5083712;28;20037;-71
2021/04/23 12:03:08;;;;;;;11.07;5.78;;;30.90;30.60;;;;;;5076843;28;20028;-72
2021/04/23 12:05:38;;;;;;;17.70;6.00;;;30.70;29.40;;;;;;5079030;28;20513;-71
2021/04/23 12:08:11;;;;;;;17.20;6.07;;;30.70;30.30;;;;;;5079459;28;20572;-71
2021/04/23 12:10:39;;;;;;;14.25;5.90;;;30.50;29.80;;;;;;5078824;28;20028;-72
2021/04/23 12:13:38;;;;;;;14.02;5.50;;;30.10;29.30;;;;;;5081136;28;20509;-72
2021/04/23 12:16:09;;;;;;;11.27;5.63;;;29.00;29.50;;;;;;5087587;28;20031;-71
2021/04/23 12:18:56;;;;;;;10.32;5.90;;;27.10;31.10;;;;;;5075466;28;20029;-72
2021/04/23 12:21:22;;;;;;;13.07;5.45;;;27.50;32.30;;;;;;5079536;28;20502;-72
2021/04/23 12:23:49;;;;;;;11.82;5.55;;;26.80;31.60;;;;;;5078378;28;20107;-72
2021/04/23 12:26:15;;;;;;;9.52;5.10;;;26.80;33.10;;;;;;5079229;28;20032;-72
2021/04/23 12:28:47;;;;;;;18.23;6.57;;;26.70;32.40;;;;;;5078392;28;20020;-72
2021/04/23 12:31:17;;;;;;;;;;;26.40;32.70;;;;;;5077317;28;20076;-72
2021/04/23 12:33:48;;;;;;;11.18;5.28;;;26.00;31.90;;;;;;5078356;28;19931;-72
2021/04/23 12:36:25;;;;;;;9.13;5.10;;;26.00;31.60;;;;;;5076550;28;20110;-72
2021/04/23 12:38:56;;;;;;;13.38;5.10;;;25.80;33.70;;;;;;5078716;28;20024;-72
2021/04/23 12:41:31;;;;;;;15.60;4.90;;;26.10;33.30;;;;;;5078671;28;20025;-72
2021/04/23 12:44:01;;;;;;;9.77;4.80;;;26.00;32.90;;;;;;5078371;28;20037;-72
2021/04/23 12:46:33;;;;;;;15.40;5.20;;;25.70;33.40;;;;;;5084584;28;20028;-72
2021/04/23 12:49:09;;;;;;;12.18;4.90;;;25.70;32.80;;;;;;5076138;28;20033;-72
2021/04/23 12:51:39;;;;;;;8.55;5.07;;;25.80;33.40;;;;;;5078076;28;20047;-72
2021/04/23 12:54:06;;;;;;;7.93;4.53;;;25.70;33.50;;;;;;5069377;28;20012;-72
2021/04/23 12:56:32;;;;;;;9.52;5.10;;;25.40;32.60;;;;;;5078083;28;20494;-72
2021/04/23 12:58:59;;;;;;;17.30;7.32;;;25.20;33.10;;;;;;5076228;28;20059;-72
2021/04/23 13:01:25;;;;;;;38.47;23.13;;;25.60;34.00;;;;;;5076161;28;20032;-72
2021/04/23 13:04:07;;;;;;;20.88;5.95;;;25.60;34.30;;;;;;5076027;28;20050;-72
2021/04/23 13:06:33;;;;;;;10.95;5.38;;;25.10;33.40;;;;;;5076226;28;20044;-72
2021/04/23 13:09:03;;;;;;;11.18;6.18;;;25.00;35.00;;;;;;5078017;28;20395;-72
2021/04/23 13:11:29;;;;;;;13.35;6.10;;;24.90;33.70;;;;;;5077910;28;20025;-72
2021/04/23 13:13:55;;;;;;;11.05;5.38;;;24.90;33.30;;;;;;5076776;28;20490;-72
2021/04/23 13:16:21;;;;;;;16.23;5.97;;;25.00;34.00;;;;;;5077628;28;20048;-72
2021/04/23 13:18:48;;;;;;;12.68;5.57;;;24.60;33.40;;;;;;5078173;28;20031;-72
2021/04/23 13:21:15;;;;;;;11.35;5.70;;;24.70;34.90;;;;;;5077726;28;20475;-72
2021/04/23 13:23:47;;;;;;;9.95;5.35;;;24.60;34.10;;;;;;5078003;28;20024;-72
2021/04/23 13:26:33;;;;;;;9.05;5.32;;;24.60;34.10;;;;;;5070997;28;20013;-71
2021/04/23 13:29:02;;;;;;;9.52;6.10;;;24.80;33.90;;;;;;5073696;28;20047;-72
2021/04/23 13:31:29;;;;;;;12.70;6.03;;;24.80;34.60;;;;;;5077653;28;20521;-72
2021/04/23 13:34:12;;;;;;;11.82;6.20;;;24.80;34.10;;;;;;5081615;28;20032;-71
2021/04/23 13:36:52;;;;;;;11.10;5.30;;;24.70;34.60;;;;;;5070863;28;20107;-71
2021/04/23 13:39:19;;;;;;;10.40;5.13;;;24.90;34.40;;;;;;5066023;28;20020;-71
2021/04/23 13:41:46;;;;;;;13.82;6.13;;;24.60;35.10;;;;;;5080670;28;20017;-71
2021/04/23 13:44:17;;;;;;;12.13;6.50;;;24.40;34.20;;;;;;5076977;28;20025;-71
2021/04/23 13:46:45;;;;;;;11.63;5.53;;;24.30;35.10;;;;;;5076754;28;20047;-71
2021/04/23 13:49:35;;;;;;;9.88;5.45;;;24.60;35.30;;;;;;5077702;28;20034;-71
2021/04/23 13:52:13;;;;;;;12.52;5.90;;;24.90;35.10;;;;;;5077024;28;20046;-71
2021/04/23 13:54:40;;;;;;;14.23;5.53;;;24.70;35.00;;;;;;5077711;28;20052;-71
2021/04/23 13:57:13;;;;;;;11.95;5.65;;;24.80;35.50;;;;;;5077480;28;20028;-71
2021/04/23 13:59:40;;;;;;;12.82;5.78;;;25.00;35.30;;;;;;5076853;28;20441;-71
2021/04/23 14:02:18;;;;;;;10.40;6.63;;;24.80;35.00;;;;;;5077525;28;20021;-71
2021/04/23 14:04:46;;;;;;;11.25;6.00;;;24.20;34.20;;;;;;5077474;28;20021;-71
2021/04/23 14:07:16;;;;;;;8.07;6.13;;;24.40;35.30;;;;;;5076755;28;20611;-71
2021/04/23 14:09:43;;;;;;;22.00;7.90;;;24.50;34.60;;;;;;5079458;28;20024;-71
2021/04/23 14:12:19;;;;;;;15.10;6.28;;;24.40;34.70;;;;;;5076981;28;20032;-70
2021/04/23 14:14:45;;;;;;;10.70;6.25;;;24.30;34.70;;;;;;5072179;28;20518;-71
2021/04/23 14:17:13;;;;;;;10.07;5.97;;;24.40;35.10;;;;;;5086420;28;20059;-71
2021/04/23 14:19:42;;;;;;;11.80;6.18;;;24.50;35.20;;;;;;5076965;28;20902;-72
2021/04/23 14:22:10;;;;;;;7.15;5.03;;;24.30;35.30;;;;;;5075861;28;20391;-71
2021/04/23 14:24:37;;;;;;;10.30;5.00;;;24.30;34.50;;;;;;5069140;28;20092;-71
2021/04/23 14:27:04;;;;;;;9.27;5.43;;;24.30;34.10;;;;;;5066399;28;20071;-71
2021/04/23 14:29:31;;;;;;;7.22;5.10;;;24.20;34.70;;;;;;5067835;28;20573;-72
2021/04/23 14:31:57;;;;;;;9.57;5.00;;;24.30;34.40;;;;;;5076697;28;20475;-70
2021/04/23 14:34:23;;;;;;;7.72;4.50;;;24.10;34.50;;;;;;5076854;28;20052;-71
2021/04/23 14:36:51;;;;;;;8.52;4.57;;;24.20;34.60;;;;;;5077021;28;20032;-71
2021/04/23 14:39:18;;;;;;;9.73;4.60;;;24.10;34.60;;;;;;5076908;28;20028;-70
2021/04/23 14:41:46;;;;;;;9.77;5.18;;;24.10;34.50;;;;;;5076810;28;20517;-70
2021/04/23 14:44:15;;;;;;;9.68;4.80;;;24.20;34.20;;;;;;5090299;28;20024;-70
2021/04/23 14:46:42;;;;;;;7.10;4.43;;;24.30;34.40;;;;;;5076934;28;20020;-71
2021/04/23 14:49:08;;;;;;;10.82;5.13;;;24.30;34.60;;;;;;5080095;28;20082;-70
2021/04/23 14:51:34;;;;;;;11.13;4.95;;;24.10;34.50;;;;;;5076627;28;20426;-70
2021/04/23 14:54:00;;;;;;;8.48;4.93;;;24.10;34.70;;;;;;5076606;28;20023;-70
2021/04/23 14:56:26;;;;;;;10.73;4.63;;;24.10;34.80;;;;;;5076915;28;20025;-70
2021/04/23 14:58:52;;;;;;;9.52;4.47;;;24.00;34.80;;;;;;5076757;28;20013;-71
2021/04/23 15:01:18;;;;;;;14.27;5.05;;;24.10;35.00;;;;;;5073871;28;20021;-71
2021/04/23 15:03:44;;;;;;;9.68;4.88;;;24.00;35.10;;;;;;5078498;28;20032;-70
2021/04/23 15:06:11;;;;;;;9.18;4.47;;;23.90;35.40;;;;;;5077018;28;20518;-71
2021/04/23 15:08:36;;;;;;;14.13;6.35;;;23.90;35.10;;;;;;5078826;28;20024;-71
2021/04/23 15:11:04;;;;;;;13.93;6.75;;;23.80;34.90;;;;;;5077750;28;20028;-71
2021/04/23 15:13:32;;;;;;;9.27;4.57;;;23.80;35.60;;;;;;5083651;28;20036;-71
2021/04/23 15:15:59;;;;;;;12.48;4.80;;;23.90;34.70;;;;;;5073681;28;20029;-71
2021/04/23 15:18:25;;;;;;;10.80;4.07;;;23.90;34.80;;;;;;5082805;28;20425;-71
2021/04/23 15:20:51;;;;;;;7.57;4.15;;;23.90;35.00;;;;;;5077656;28;21487;-71
2021/04/23 15:23:18;;;;;;;9.85;4.38;;;23.80;34.40;;;;;;5083346;28;20031;-71
2021/04/23 15:25:45;;;;;;;9.73;4.80;;;23.80;34.60;;;;;;5080566;28;20079;-71
2021/04/23 15:28:12;;;;;;;8.00;3.97;;;23.80;33.90;;;;;;5082790;28;20012;-71
2021/04/23 15:30:40;;;;;;;9.80;6.20;;;23.80;34.40;;;;;;5078678;28;20554;-69
2021/04/23 15:33:07;;;;;;;16.42;10.50;;;23.80;34.50;;;;;;5087046;28;20119;-69
2021/04/23 15:35:35;;;;;;;6.57;4.40;;;23.80;34.60;;;;;;5078227;28;20060;-78
2021/04/23 15:38:03;;;;;;;7.28;4.22;;;23.70;34.50;;;;;;5079791;28;20032;-78
2021/04/23 15:40:29;;;;;;;8.07;3.92;;;23.40;33.90;;;;;;5078987;28;20025;-79
2021/04/23 15:42:54;;;;;;;9.93;4.25;;;23.50;34.20;;;;;;5079962;28;20046;-78
2021/04/23 15:45:24;;;;;;;6.55;3.80;;;23.50;33.90;;;;;;5079551;28;20084;-78
2021/04/23 15:47:50;;;;;;;8.63;4.60;;;23.50;33.50;;;;;;5080017;28;20471;-78
2021/04/23 15:50:19;;;;;;;10.43;4.15;;;23.30;33.90;;;;;;5079122;28;20024;-78
2021/04/23 15:52:45;;;;;;;8.07;4.18;;;23.30;34.10;;;;;;5088857;28;20042;-78
2021/04/23 15:55:12;;;;;;;8.88;4.03;;;23.40;34.40;;;;;;5079201;28;20021;-78
2021/04/23 15:57:38;;;;;;;7.75;3.97;;;23.50;34.60;;;;;;5087475;28;20413;-78
2021/04/23 16:00:07;;;;;;;6.82;3.30;;;23.30;33.90;;;;;;5079438;28;20025;-78
2021/04/23 16:02:33;;;;;;;7.88;3.78;;;23.30;33.70;;;;;;5087692;28;20024;-78
2021/04/23 16:04:59;;;;;;;10.85;3.88;;;23.20;33.70;;;;;;5081134;28;20020;-78
2021/04/23 16:07:25;;;;;;;7.22;3.40;;;23.30;33.90;;;;;;5078259;28;20025;-78
2021/04/23 16:09:51;;;;;;;10.82;3.53;;;23.30;33.50;;;;;;5078292;28;20479;-78
2021/04/23 16:12:17;;;;;;;9.20;3.30;;;23.20;32.80;;;;;;5083970;28;20050;-78
2021/04/23 16:14:42;;;;;;;6.97;3.40;;;23.10;33.50;;;;;;5077944;28;20086;-78
2021/04/23 16:17:08;;;;;;;6.97;3.60;;;23.10;33.40;;;;;;5079306;28;20028;-78
2021/04/23 16:19:34;;;;;;;7.75;3.22;;;23.10;33.70;;;;;;5079219;28;20020;-78
2021/04/23 16:22:00;;;;;;;7.28;3.08;;;23.00;33.10;;;;;;5079125;28;20020;-78
2021/04/23 16:24:26;;;;;;;8.52;3.13;;;22.80;32.30;;;;;;5078018;28;20021;-78
2021/04/23 16:26:51;;;;;;;6.40;3.03;;;22.80;32.80;;;;;;5074610;28;20048;-78
2021/04/23 16:29:17;;;;;;;7.00;3.60;;;22.70;32.30;;;;;;5077903;28;20068;-78
2021/04/23 16:31:43;;;;;;;5.68;2.60;;;22.50;32.10;;;;;;5087527;28;20042;-78
2021/04/23 16:34:09;;;;;;;6.40;2.40;;;22.60;32.80;;;;;;5079660;28;20028;-78
2021/04/23 16:36:34;;;;;;;10.18;3.20;;;22.80;32.70;;;;;;5078497;28;20059;-78
2021/04/23 16:39:00;;;;;;;7.35;3.40;;;22.70;32.80;;;;;;5084504;28;20017;-78
2021/04/23 16:41:26;;;;;;;7.05;3.00;;;22.60;32.90;;;;;;5086602;28;20058;-78
2021/04/23 16:43:53;;;;;;;4.95;2.72;;;22.60;32.70;;;;;;5078818;28;20016;-78
2021/04/23 16:46:19;;;;;;;8.35;3.10;;;22.70;32.30;;;;;;5072920;28;20487;-83
2021/04/23 16:48:45;;;;;;;6.85;2.75;;;22.50;32.40;;;;;;5091809;28;20016;-79
2021/04/23 16:51:11;;;;;;;10.85;3.45;;;22.50;32.00;;;;;;5069385;28;20454;-81
2021/04/23 16:53:36;;;;;;;7.10;2.90;;;22.30;31.90;;;;;;5074102;28;20028;-81
2021/04/23 16:56:03;;;;;;;7.13;2.40;;;22.20;32.30;;;;;;5078590;28;20029;-81
2021/04/23 16:58:28;;;;;;;8.25;2.47;;;22.20;32.40;;;;;;5075660;28;20082;-83
2021/04/23 17:00:54;;;;;;;5.53;2.55;;;22.20;32.20;;;;;;5075900;28;20028;-82
2021/04/23 17:03:20;;;;;;;5.40;2.50;;;22.20;31.60;;;;;;5076847;28;20032;-81
2021/04/23 17:05:46;;;;;;;5.72;2.50;;;22.10;31.70;;;;;;5076978;28;20025;-81
2021/04/23 17:08:12;;;;;;;5.03;2.47;;;22.20;31.70;;;;;;5071948;28;20021;-81
2021/04/23 17:10:38;;;;;;;7.30;2.95;;;22.20;31.30;;;;;;5076165;28;20151;-81
2021/04/23 17:13:03;;;;;;;7.50;3.03;;;22.20;31.60;;;;;;5076980;28;20429;-81
2021/04/23 17:15:29;;;;;;;5.60;2.63;;;22.10;31.60;;;;;;5078986;28;20028;-82
2021/04/23 17:17:56;;;;;;;9.25;2.78;;;22.10;32.20;;;;;;5082839;28;20061;-79
2021/04/23 17:20:22;;;;;;;6.20;2.35;;;22.00;32.20;;;;;;5077756;28;20048;-84
2021/04/23 17:22:49;;;;;;;6.60;3.05;;;22.10;32.60;;;;;;5075399;28;20021;-76
2021/04/23 17:25:18;;;;;;;6.35;2.35;;;22.00;32.20;;;;;;5073533;28;20048;-75
2021/04/23 17:27:46;;;;;;;5.28;2.25;;;22.00;33.20;;;;;;5076367;28;20076;-75
2021/04/23 17:30:16;;;;;;;6.97;2.60;;;22.00;33.10;;;;;;5076435;28;20105;-76
2021/04/23 17:32:42;;;;;;;5.63;2.63;;;21.90;32.60;;;;;;5077179;28;20055;-77
2021/04/23 17:35:10;;;;;;;11.45;2.90;;;21.70;32.60;;;;;;5088589;28;20035;-77
2021/04/23 17:37:35;;;;;;;6.00;2.17;;;21.80;32.40;;;;;;5077498;28;20016;-77
2021/04/23 17:40:03;;;;;;;6.22;2.35;;;21.80;32.50;;;;;;5077245;28;20066;-76
2021/04/23 17:42:29;;;;;;;4.47;2.10;;;21.70;32.20;;;;;;5077521;28;20063;-76
2021/04/23 17:45:01;;;;;;;5.95;2.30;;;21.70;32.30;;;;;;5077602;28;20525;-83
2021/04/23 17:47:27;;;;;;;6.97;2.63;;;21.70;32.20;;;;;;5076507;28;20032;-83
2021/04/23 17:49:53;;;;;;;5.95;2.28;;;21.60;32.70;;;;;;5073301;28;20033;-78
2021/04/23 17:52:19;;;;;;;6.43;2.28;;;21.60;32.70;;;;;;5074729;28;20020;-80
2021/04/23 17:54:45;;;;;;;6.25;2.30;;;21.60;33.20;;;;;;5064488;28;20039;-79
2021/04/23 17:57:10;;;;;;;6.97;2.10;;;21.50;32.50;;;;;;5076175;28;20076;-79
2021/04/23 17:59:36;;;;;;;5.72;2.20;;;21.40;32.30;;;;;;5076811;28;20032;-78
2021/04/23 18:02:02;;;;;;;6.43;2.38;;;21.40;32.60;;;;;;5076607;28;20024;-78
2021/04/23 18:04:28;;;;;;;5.78;2.30;;;21.50;32.70;;;;;;5077144;28;20025;-78
2021/04/23 18:06:54;;;;;;;8.50;2.42;;;21.30;32.30;;;;;;5077261;28;20099;-78
2021/04/23 18:09:20;;;;;;;7.53;2.50;;;21.10;33.10;;;;;;5077150;28;20027;-78
2021/04/23 18:11:45;;;;;;;7.47;2.70;;;21.10;32.70;;;;;;5076981;28;20082;-79
2021/04/23 18:14:11;;;;;;;6.65;2.53;;;21.10;32.50;;;;;;5078592;28;20085;-78
2021/04/23 18:16:37;;;;;;;5.50;2.30;;;21.10;33.00;;;;;;5076632;28;20048;-79
2021/04/23 18:19:04;;;;;;;7.63;2.30;;;20.90;32.30;;;;;;5077069;28;20021;-79
2021/04/23 18:21:29;;;;;;;7.13;2.50;;;20.90;32.50;;;;;;5077146;28;20025;-79
2021/04/23 18:23:55;;;;;;;8.23;2.47;;;20.80;32.10;;;;;;5076848;28;20074;-79
2021/04/23 18:26:21;;;;;;;7.72;2.30;;;20.90;32.50;;;;;;5077223;28;20025;-79
2021/04/23 18:28:47;;;;;;;5.72;2.33;;;20.90;32.80;;;;;;5076869;28;21366;-81
2021/04/23 18:31:15;;;;;;;5.18;2.10;;;20.70;32.70;;;;;;5073910;28;20036;-76
2021/04/23 18:33:41;;;;;;;6.05;2.65;;;20.70;33.10;;;;;;5081287;28;20048;-78
2021/04/23 18:36:08;;;;;;;5.88;2.20;;;20.70;33.00;;;;;;5076097;28;20027;-82
2021/04/23 18:38:35;;;;;;;5.88;2.17;;;20.60;33.30;;;;;;5075587;28;20059;-77
2021/04/23 18:41:02;;;;;;;6.47;2.00;;;20.60;33.40;;;;;;5076408;28;20025;-82
2021/04/23 18:43:28;;;;;;;6.13;2.08;;;20.60;33.70;;;;;;5076861;28;20029;-80
2021/04/23 18:45:54;;;;;;;5.97;2.70;;;20.60;33.80;;;;;;5076219;28;20032;-82
2021/04/23 18:48:20;;;;;;;6.30;2.40;;;20.50;33.70;;;;;;5076155;28;20107;-80
2021/04/23 18:50:48;;;;;;;6.22;2.10;;;20.50;33.90;;;;;;5073157;28;20068;-77
2021/04/23 18:53:14;;;;;;;5.75;1.80;;;20.50;34.10;;;;;;5080523;28;20445;-78
2021/04/23 18:55:40;;;;;;;6.30;2.28;;;20.30;34.30;;;;;;5080579;28;20033;-77
2021/04/23 18:58:06;;;;;;;6.07;2.08;;;20.30;34.50;;;;;;5080473;28;20059;-77
2021/04/23 19:00:32;;;;;;;4.53;2.20;;;20.10;35.00;;;;;;5079765;28;20055;-78
2021/04/23 19:02:58;;;;;;;7.15;2.30;;;20.10;35.20;;;;;;5080273;28;20025;-81
2021/04/23 19:05:25;;;;;;;6.13;2.17;;;20.00;35.50;;;;;;5080138;28;20061;-81
2021/04/23 19:07:52;;;;;;;5.78;2.53;;;20.00;35.60;;;;;;5079463;28;20141;-85
2021/04/23 19:10:19;;;;;;;9.30;2.60;;;19.90;35.80;;;;;;5079375;28;20017;-76
2021/04/23 19:12:45;;;;;;;7.97;2.70;;;19.90;36.00;;;;;;5079053;28;20032;-76
2021/04/23 19:15:13;;;;;;;5.28;2.17;;;19.70;36.20;;;;;;5076804;28;20031;-77
2021/04/23 19:17:44;;;;;;;5.93;2.10;;;19.70;36.40;;;;;;5080347;28;20029;-77
2021/04/23 19:20:15;;;;;;;6.43;2.13;;;19.70;36.40;;;;;;5084320;28;20099;-77
2021/04/23 19:22:42;;;;;;;8.27;2.20;;;19.60;36.40;;;;;;5082242;28;20037;-78
2021/04/23 19:25:09;;;;;;;5.15;2.20;;;19.50;36.50;;;;;;5080003;28;20017;-78
2021/04/23 19:27:35;;;;;;;6.70;2.63;;;19.60;36.50;;;;;;5080074;28;20017;-75
2021/04/23 19:30:03;;;;;;;8.50;2.05;;;19.40;36.90;;;;;;5079356;28;20135;-79
2021/04/23 19:32:29;;;;;;;5.95;2.08;;;19.30;36.40;;;;;;5079247;28;20081;-79
2021/04/23 19:34:55;;;;;;;4.85;2.17;;;19.20;37.10;;;;;;5072237;28;20107;-79
2021/04/23 19:37:23;;;;;;;7.20;2.78;;;19.10;37.30;;;;;;5079830;28;20025;-80
2021/04/23 19:39:49;;;;;;;6.72;2.30;;;19.00;37.10;;;;;;5078798;28;20020;-82
2021/04/23 19:42:14;;;;;;;7.18;2.15;;;19.00;37.60;;;;;;5075760;28;20387;-81
2021/04/23 19:44:40;;;;;;;6.18;2.22;;;19.10;37.20;;;;;;5078043;28;20029;-80
2021/04/23 19:47:06;;;;;;;5.05;2.00;;;19.00;37.50;;;;;;5072699;28;20017;-80
2021/04/23 19:49:33;;;;;;;4.45;2.10;;;18.90;37.10;;;;;;5077344;28;20036;-80
2021/04/23 19:52:00;;;;;;;8.63;2.50;;;18.90;36.90;;;;;;5076905;28;20025;-81
2021/04/23 19:54:26;;;;;;;4.43;2.10;;;18.80;37.80;;;;;;5076753;28;20019;-81
2021/04/23 19:56:52;;;;;;;5.65;1.90;;;18.70;37.90;;;;;;5074548;28;20048;-81
2021/04/23 19:59:18;;;;;;;7.18;2.10;;;18.70;38.10;;;;;;5078344;28;20028;-82
2021/04/23 20:01:44;;;;;;;5.55;2.25;;;18.60;37.90;;;;;;5076658;28;20020;-81
2021/04/23 20:04:10;;;;;;;6.40;2.55;;;18.60;37.90;;;;;;5078551;28;20017;-82
2021/04/23 20:06:36;;;;;;;5.22;1.85;;;18.50;38.80;;;;;;5076032;28;20031;-82
2021/04/23 20:09:02;;;;;;;6.57;2.38;;;18.30;39.30;;;;;;5070512;28;20025;-81
2021/04/23 20:11:28;;;;;;;8.30;2.58;;;18.20;39.30;;;;;;5067973;28;20495;-82
2021/04/23 20:13:54;;;;;;;5.18;2.08;;;18.20;40.00;;;;;;5064936;28;20024;-81
2021/04/23 20:16:20;;;;;;;5.28;2.25;;;18.10;40.20;;;;;;5078782;28;20020;-82
2021/04/23 20:18:46;;;;;;;7.80;2.80;;;18.00;40.50;;;;;;5074741;28;20036;-81
2021/04/23 20:21:12;;;;;;;5.60;2.05;;;17.80;40.70;;;;;;5068185;28;20103;-79
2021/04/23 20:23:38;;;;;;;7.57;2.10;;;17.70;41.20;;;;;;5077780;28;20402;-79
2021/04/23 20:26:05;;;;;;;9.95;2.30;;;17.80;41.00;;;;;;5073258;28;20025;-81
2021/04/23 20:28:32;;;;;;;4.88;2.00;;;17.80;41.00;;;;;;5073311;28;20083;-81
2021/04/23 20:30:58;;;;;;;5.90;2.15;;;17.60;42.00;;;;;;5074651;28;20581;-81
2021/04/23 20:33:25;;;;;;;4.88;2.10;;;17.50;41.20;;;;;;5078989;28;20024;-81
2021/04/23 20:35:51;;;;;;;6.75;2.35;;;17.50;41.60;;;;;;5076932;28;20023;-80
2021/04/23 20:38:17;;;;;;;7.50;2.33;;;17.50;41.60;;;;;;5077919;28;20084;-79
2021/04/23 20:40:43;;;;;;;10.70;2.70;;;17.40;41.70;;;;;;5080012;28;20024;-79
2021/04/23 20:43:11;;;;;;;6.60;2.15;;;17.30;41.00;;;;;;5072864;28;20398;-81
2021/04/23 20:45:37;;;;;;;4.78;2.30;;;17.40;41.20;;;;;;5076007;28;20025;-80
2021/04/23 20:48:03;;;;;;;5.47;2.35;;;17.30;41.60;;;;;;5074150;28;20474;-80
2021/04/23 20:50:29;;;;;;;5.90;2.45;;;17.20;42.20;;;;;;5076241;28;21242;-80
2021/04/23 20:52:56;;;;;;;6.85;2.30;;;17.30;42.50;;;;;;5075700;28;20032;-80
2021/04/23 20:55:23;;;;;;;5.50;2.20;;;17.20;42.50;;;;;;5074044;28;20044;-81
2021/04/23 20:57:49;;;;;;;7.15;2.40;;;17.20;42.40;;;;;;5077931;28;20029;-79
2021/04/23 21:00:16;;;;;;;7.45;2.47;;;17.00;42.60;;;;;;5075598;28;20480;-79
2021/04/23 21:02:43;;;;;;;4.32;2.20;;;16.80;43.00;;;;;;5076170;28;20715;-78
2021/04/23 21:05:10;;;;;;;10.85;2.38;;;17.10;42.60;;;;;;5072373;28;20012;-80
2021/04/23 21:07:37;;;;;;;3.97;1.90;;;16.80;42.90;;;;;;5075053;28;20021;-80
2021/04/23 21:10:04;;;;;;;5.22;2.65;;;16.90;42.80;;;;;;5075547;28;20020;-80
2021/04/23 21:12:30;;;;;;;6.95;2.90;;;16.90;42.70;;;;;;5073296;28;20052;-79
2021/04/23 21:14:56;;;;;;;8.98;2.20;;;16.70;43.60;;;;;;5056532;28;20448;-82
2021/04/23 21:17:22;;;;;;;7.25;2.95;;;16.70;43.60;;;;;;5058058;28;20070;-78
2021/04/23 21:19:48;;;;;;;5.35;2.20;;;16.70;43.90;;;;;;5057983;28;20541;-78
2021/04/23 21:22:14;;;;;;;6.53;2.20;;;16.70;43.60;;;;;;5069110;28;20029;-79
2021/04/23 21:24:40;;;;;;;6.20;2.65;;;16.60;44.40;;;;;;5075809;28;20453;-78
2021/04/23 21:27:07;;;;;;;7.07;2.63;;;16.40;44.80;;;;;;5077213;28;20078;-78
2021/04/23 21:29:33;;;;;;;5.28;3.22;;;16.30;44.80;;;;;;5077911;28;20064;-81
2021/04/23 21:32:01;;;;;;;8.93;3.17;;;16.40;44.20;;;;;;5075322;28;20036;-81
2021/04/23 21:34:27;;;;;;;8.55;2.78;;;16.20;45.60;;;;;;5071917;28;20066;-80
2021/04/23 21:36:53;;;;;;;7.60;2.78;;;16.30;45.30;;;;;;5066659;28;20050;-80
2021/04/23 21:39:20;;;;;;;6.95;3.08;;;16.30;44.90;;;;;;5070445;28;20498;-80
2021/04/23 21:41:46;;;;;;;6.78;3.03;;;16.10;45.70;;;;;;5072785;28;20514;-78
2021/04/23 21:44:12;;;;;;;5.88;2.80;;;16.20;45.10;;;;;;5065654;28;20028;-78
2021/04/23 21:46:38;;;;;;;7.82;2.67;;;16.30;44.20;;;;;;5076589;28;20036;-78
2021/04/23 21:49:04;;;;;;;8.63;2.78;;;16.30;43.70;;;;;;5059897;28;20025;-78
2021/04/23 21:51:31;;;;;;;7.03;2.30;;;16.30;43.60;;;;;;5057540;28;20040;-78
2021/04/23 21:53:58;;;;;;;6.00;3.03;;;16.40;43.00;;;;;;5074756;28;20024;-78
2021/04/23 21:56:25;;;;;;;5.60;2.53;;;16.30;43.10;;;;;;5073297;28;20021;-79